createdAt,value
2019-05-13T00:02:57.190Z,14.23
2019-05-13T00:07:49.827Z,9.77
2019-05-13T00:12:44.532Z,9.63
2019-05-13T00:17:36.165Z,8.93
2019-05-13T00:22:28.305Z,7.70
2019-05-13T00:27:20.580Z,8.00
2019-05-13T00:32:13.616Z,6.30
2019-05-13T00:37:10.759Z,11.10
2019-05-13T00:41:59.978Z,9.40
2019-05-13T00:46:53.755Z,7.50
2019-05-13T00:51:46.784Z,7.87
2019-05-13T00:56:39.164Z,9.33
2019-05-13T01:01:33.405Z,8.63
2019-05-13T01:06:25.261Z,12.20
2019-05-13T01:11:17.704Z,13.20
2019-05-13T01:16:10.046Z,12.70
2019-05-13T01:21:04.437Z,10.60
2019-05-13T01:25:56.849Z,7.57
2019-05-13T01:30:49.707Z,6.70
2019-05-13T01:35:44.341Z,6.03
2019-05-13T01:40:36.106Z,8.00
2019-05-13T01:45:28.704Z,6.90
2019-05-13T01:50:21.236Z,8.03
2019-05-13T01:55:14.798Z,7.83
2019-05-13T02:00:07.974Z,9.50
2019-05-13T02:05:00.540Z,15.87
2019-05-13T02:09:53.490Z,8.03
2019-05-13T02:14:46.052Z,8.20
2019-05-13T02:19:38.356Z,7.57
2019-05-13T02:24:30.981Z,9.93
2019-05-13T02:29:24.549Z,7.30
2019-05-13T02:34:17.216Z,6.50
2019-05-13T02:39:12.781Z,6.33
2019-05-13T02:44:04.118Z,7.60
2019-05-13T02:48:56.558Z,7.30
2019-05-13T02:53:48.694Z,8.07
2019-05-13T02:58:42.806Z,7.07
2019-05-13T03:03:34.681Z,6.80
2019-05-13T03:08:45.025Z,6.13
2019-05-13T03:13:23.431Z,6.13
2019-05-13T03:18:16.284Z,7.73
2019-05-13T03:23:08.612Z,6.30
2019-05-13T03:28:03.143Z,6.33
2019-05-13T03:33:01.863Z,6.10
2019-05-13T03:37:49.121Z,6.47
2019-05-13T03:42:43.960Z,6.97
2019-05-13T03:47:37.694Z,5.87
2019-05-13T03:52:33.238Z,5.97
2019-05-13T03:57:23.649Z,5.87
2019-05-13T04:02:16.296Z,5.43
2019-05-13T04:07:08.603Z,5.57
2019-05-13T04:12:03.135Z,5.40
2019-05-13T04:16:55.136Z,19.80
2019-05-13T04:21:47.500Z,6.30
2019-05-13T04:26:43.292Z,6.17
2019-05-13T04:31:34.354Z,4.73
2019-05-13T04:36:27.082Z,5.73
2019-05-13T04:41:22.603Z,5.70
2019-05-13T04:46:14.515Z,5.60
2019-05-13T04:51:07.561Z,5.03
2019-05-13T04:56:03.060Z,5.33
2019-05-13T05:01:08.674Z,5.90
2019-05-13T05:06:04.576Z,5.67
2019-05-13T05:11:21.944Z,6.63
2019-05-13T05:16:21.806Z,8.18
2019-05-13T05:21:41.728Z,7.20
2019-05-13T05:27:05.297Z,6.60
2019-05-13T05:32:16.905Z,5.50
2019-05-13T05:37:41.615Z,4.33
2019-05-13T05:42:35.755Z,2.37
2019-05-13T05:47:31.802Z,2.47
2019-05-13T05:52:26.271Z,2.50
2019-05-13T05:57:22.447Z,2.20
2019-05-13T06:02:15.064Z,2.10
2019-05-13T06:07:07.692Z,2.13
2019-05-13T06:12:01.703Z,1.90
2019-05-13T06:16:54.479Z,1.90
2019-05-13T06:21:47.486Z,1.70
2019-05-13T06:26:42.004Z,2.10
2019-05-13T06:31:33.803Z,1.53
2019-05-13T06:36:26.613Z,1.85
2019-05-13T06:41:19.292Z,1.67
2019-05-13T06:46:12.346Z,1.62
2019-05-13T06:51:05.038Z,1.77
2019-05-13T06:55:57.428Z,1.65
2019-05-13T07:00:51.595Z,1.92
2019-05-13T07:05:43.797Z,1.55
2019-05-13T07:10:36.416Z,1.57
2019-05-13T07:15:31.384Z,1.70
2019-05-13T07:20:23.112Z,1.52
2019-05-13T07:25:15.867Z,1.45
2019-05-13T07:30:11.348Z,1.77
2019-05-13T07:35:04.882Z,1.60
2019-05-13T07:39:59.261Z,1.52
2019-05-13T07:44:52.331Z,1.77
2019-05-13T07:49:45.165Z,1.50
2019-05-13T07:54:37.585Z,2.10
2019-05-13T07:59:31.851Z,1.70
2019-05-13T08:04:26.657Z,1.60
2019-05-13T08:09:21.455Z,1.40
2019-05-13T08:14:12.836Z,1.60
2019-05-13T08:19:05.463Z,1.35
2019-05-13T08:23:57.826Z,1.40
2019-05-13T08:29:00.260Z,1.40
2019-05-13T08:33:44.398Z,1.22
2019-05-13T08:38:36.641Z,1.30
2019-05-13T08:43:31.441Z,1.57
2019-05-13T08:48:23.335Z,1.20
2019-05-13T08:53:15.748Z,1.55
2019-05-13T08:58:08.160Z,1.40
2019-05-13T09:03:01.747Z,1.15
2019-05-13T09:07:54.847Z,1.45
2019-05-13T09:12:47.500Z,1.47
2019-05-13T09:17:42.285Z,1.55
2019-05-13T09:22:34.249Z,1.32
2019-05-13T09:27:26.624Z,1.30
2019-05-13T09:32:21.520Z,1.40
2019-05-13T09:37:13.474Z,1.25
2019-05-13T09:42:05.787Z,1.30
2019-05-13T09:46:58.258Z,1.25
2019-05-13T09:51:52.308Z,1.30
2019-05-13T09:56:45.187Z,1.47
2019-05-13T10:01:39.365Z,1.30
2019-05-13T10:06:32.860Z,1.20
2019-05-13T10:11:25.698Z,1.23
2019-05-13T10:16:18.089Z,1.30
2019-05-13T10:21:10.724Z,1.70
2019-05-13T10:26:05.973Z,1.52
2019-05-13T10:30:58.755Z,1.17
2019-05-13T10:35:52.960Z,1.40
2019-05-13T10:40:45.591Z,1.52
2019-05-13T10:45:38.182Z,1.30
2019-05-13T10:50:31.741Z,1.20
2019-05-13T10:55:24.942Z,1.40
2019-05-13T11:00:17.519Z,1.10
2019-05-13T11:05:12.218Z,1.20
2019-05-13T11:10:08.567Z,1.27
2019-05-13T11:15:02.649Z,1.15
2019-05-13T11:19:56.778Z,1.25
2019-05-13T11:24:51.851Z,1.20
2019-05-13T11:29:43.344Z,1.30
2019-05-13T11:34:35.834Z,1.20
2019-05-13T11:39:28.439Z,1.52
2019-05-13T11:44:22.823Z,1.30
2019-05-13T11:49:14.868Z,1.10
2019-05-13T11:54:07.500Z,1.05
2019-05-13T11:59:04.069Z,1.10
2019-05-13T12:03:54.303Z,1.30
2019-05-13T12:08:52.094Z,1.20
2019-05-13T12:13:42.715Z,1.07
2019-05-13T12:18:39.333Z,1.12
2019-05-13T12:23:29.061Z,1.00
2019-05-13T12:28:21.729Z,1.32
2019-05-13T12:33:14.440Z,1.27
2019-05-13T12:38:07.092Z,1.27
2019-05-13T12:43:02.049Z,1.20
2019-05-13T12:47:54.937Z,1.17
2019-05-13T12:52:47.699Z,1.07
2019-05-13T12:57:40.420Z,1.25
2019-05-13T13:02:32.841Z,1.00
2019-05-13T13:07:25.211Z,1.20
2019-05-13T13:12:17.576Z,1.07
2019-05-13T13:17:12.218Z,1.30
2019-05-13T13:22:07.667Z,1.10
2019-05-13T13:26:58.094Z,1.10
2019-05-13T13:31:54.863Z,1.20
2019-05-13T13:36:45.861Z,1.42
2019-05-13T13:41:37.749Z,1.40
2019-05-13T13:46:41.306Z,1.27
2019-05-13T13:51:26.623Z,1.20
2019-05-13T13:56:24.457Z,1.35
2019-05-13T14:01:19.894Z,1.22
2019-05-13T14:06:07.084Z,1.10
2019-05-13T14:11:01.936Z,1.20
2019-05-13T14:15:53.887Z,1.22
2019-05-13T14:20:46.896Z,1.47
2019-05-13T14:25:42.074Z,1.10
2019-05-13T14:30:33.892Z,1.37
2019-05-13T14:35:26.595Z,1.37
2019-05-13T14:40:19.367Z,1.30
2019-05-13T14:45:12.409Z,1.35
2019-05-13T14:50:06.543Z,1.22
2019-05-13T14:54:58.998Z,1.20
2019-05-13T14:59:51.632Z,1.77
2019-05-13T15:04:43.741Z,1.13
2019-05-13T15:09:36.458Z,1.40
2019-05-13T15:14:28.855Z,1.40
2019-05-13T15:19:22.356Z,1.27
2019-05-13T15:24:14.903Z,1.30
2019-05-13T15:29:07.354Z,1.30
2019-05-13T15:34:02.506Z,1.42
2019-05-13T15:38:53.375Z,1.55
2019-05-13T15:43:46.066Z,1.60
2019-05-13T15:48:38.683Z,1.32
2019-05-13T15:53:39.254Z,1.27
2019-05-13T15:58:38.466Z,1.40
2019-05-13T16:03:18.910Z,1.32
2019-05-13T16:08:12.254Z,1.40
2019-05-13T16:13:04.913Z,1.40
2019-05-13T16:17:57.110Z,1.52
2019-05-13T16:22:49.431Z,1.40
2019-05-13T16:27:42.150Z,1.55
2019-05-13T16:32:34.750Z,1.60
2019-05-13T16:37:27.404Z,1.67
2019-05-13T16:42:22.304Z,1.30
2019-05-13T16:47:13.921Z,1.72
2019-05-13T16:52:06.625Z,1.40
2019-05-13T16:57:01.196Z,1.32
2019-05-13T17:01:53.536Z,1.55
2019-05-13T17:06:45.918Z,1.40
2019-05-13T17:11:38.354Z,1.42
2019-05-13T17:16:31.757Z,1.60
2019-05-13T17:21:24.001Z,1.40
2019-05-13T17:26:16.368Z,1.45
2019-05-13T17:31:11.338Z,1.52
2019-05-13T17:36:02.998Z,1.62
2019-05-13T17:40:55.668Z,1.70
2019-05-13T17:45:48.334Z,1.60
2019-05-13T17:50:41.350Z,1.77
2019-05-13T17:55:33.758Z,1.70
2019-05-13T18:00:26.600Z,1.50
2019-05-13T18:05:19.315Z,1.50
2019-05-13T18:10:14.398Z,1.70
2019-05-13T18:15:11.443Z,2.17
2019-05-13T18:20:05.441Z,1.60
2019-05-13T18:24:58.066Z,1.62
2019-05-13T18:29:51.379Z,1.67
2019-05-13T18:34:43.860Z,2.00
2019-05-13T18:39:36.225Z,1.85
2019-05-13T18:44:31.682Z,2.14
2019-05-13T18:49:23.953Z,1.80
2019-05-13T18:54:16.054Z,1.85
2019-05-13T18:59:08.454Z,1.90
2019-05-13T19:04:01.954Z,1.82
2019-05-13T19:08:54.702Z,2.10
2019-05-13T19:13:47.063Z,1.90
2019-05-13T19:18:39.378Z,1.60
2019-05-13T19:23:31.592Z,1.87
2019-05-13T19:28:23.756Z,2.05
2019-05-13T19:33:16.048Z,1.75
2019-05-13T19:38:08.912Z,6.95
2019-05-13T19:43:01.816Z,2.75
2019-05-13T19:47:54.617Z,4.75
2019-05-13T19:52:47.172Z,4.10
2019-05-13T19:57:42.307Z,3.85
2019-05-13T20:02:35.273Z,6.35
2019-05-13T20:07:28.216Z,4.92
2019-05-13T20:12:21.258Z,10.13
2019-05-13T20:17:13.459Z,6.37
2019-05-13T20:22:05.990Z,12.25
2019-05-13T20:26:58.820Z,9.53
2019-05-13T20:31:51.827Z,8.93
2019-05-13T20:36:44.639Z,7.00
2019-05-13T20:41:37.225Z,8.40
2019-05-13T20:46:32.532Z,4.62
2019-05-13T20:51:24.245Z,15.53
2019-05-13T20:56:17.164Z,9.97
2019-05-13T21:01:11.155Z,6.83
2019-05-13T21:06:03.771Z,9.30
2019-05-13T21:10:55.893Z,7.20
2019-05-13T21:15:48.371Z,5.17
2019-05-13T21:20:41.117Z,6.10
2019-05-13T21:25:33.793Z,10.25
2019-05-13T21:30:26.316Z,16.80
2019-05-13T21:35:21.091Z,26.35
2019-05-13T21:40:15.029Z,10.20
2019-05-13T21:45:08.335Z,6.75
2019-05-13T21:50:00.341Z,4.70
2019-05-13T21:54:52.342Z,4.07
2019-05-13T21:59:45.254Z,5.43
2019-05-13T22:04:38.105Z,3.20
2019-05-13T22:09:31.864Z,3.47
2019-05-13T22:14:24.594Z,3.10
2019-05-13T22:19:17.071Z,2.80
2019-05-13T22:24:11.609Z,2.90
2019-05-13T22:29:04.143Z,3.67
2019-05-13T22:33:56.552Z,5.80
2019-05-13T22:38:48.650Z,35.07
2019-05-13T22:43:54.526Z,14.37
2019-05-13T22:48:35.123Z,24.13
2019-05-13T22:53:27.215Z,17.33
2019-05-13T22:58:19.187Z,38.33
2019-05-13T23:03:11.986Z,26.70
2019-05-13T23:08:04.300Z,9.37
2019-05-13T23:12:56.596Z,17.20
2019-05-13T23:17:49.163Z,34.83
2019-05-13T23:22:41.736Z,17.87
2019-05-13T23:27:33.997Z,14.33
2019-05-13T23:32:26.380Z,15.00
2019-05-13T23:37:19.216Z,28.30
2019-05-13T23:42:12.139Z,26.77
2019-05-13T23:47:05.043Z,16.73
2019-05-13T23:51:57.706Z,19.33
2019-05-13T23:56:50.435Z,20.30
